ADDS METAR Data INFO
IDs: Format: Raw Decoded Include TAF

Data at: 0936 UTC 11 Dec 2017

KALS 110852Z AUTO 20005KT 10SM CLR M16/M22 A3051 RMK AO2 SLP363 T11611222 58001
KALS 110752Z AUTO 30004KT 10SM CLR M16/M23 A3052 RMK AO2 SLP371 T11561228
KALS 110652Z AUTO 00000KT 10SM CLR M14/M22 A3052 RMK AO2 SLP371 T11391222 400891178
KALS 110552Z AUTO 19003KT 10SM CLR M16/M23 A3051 RMK AO2 SLP382 T11561228 10039 21156 53006
KALS 110452Z AUTO 26004KT 10SM CLR M11/M21 A3050 RMK AO2 SLP375 T11111206
KALS 110352Z AUTO 26006KT 10SM CLR M11/M22 A3049 RMK AO2 SLP394 T11111217
KALS 110252Z AUTO 00000KT 10SM CLR M09/M23 A3049 RMK AO2 SLP405 T10891228 53008
KALS 110152Z AUTO 01006KT 10SM CLR M08/M21 A3047 RMK AO2 SLP411 T10781206
KALS 110052Z AUTO 25003KT 10SM CLR 00/M22 A3046 RMK AO2 SLP377 T00001217
KALS 102352Z AUTO 19003KT 10SM CLR 04/M22 A3046 RMK AO2 SLP359 T00391222 10089 20022 56004
KALS 102252Z AUTO 00000KT 10SM CLR 08/M23 A3046 RMK AO2 SLP345 T00781233
KALS 102152Z AUTO 24003KT 10SM CLR 08/M23 A3046 RMK AO2 SLP344 T00831233
KALS 102052Z AUTO 00000KT 10SM CLR 08/M21 A3047 RMK AO2 SLP344 T00781211 56025
KALS 101952Z AUTO 06004KT 10SM CLR 06/M20 A3049 RMK AO2 SLP362 T00611200
KALS 101852Z AUTO VRB03KT 10SM CLR 05/M19 A3053 RMK AO2 SLP375 T00501189
KALS 101752Z AUTO 00000KT 10SM CLR 02/M18 A3056 RMK AO2 SLP391 T00221178 10022 21178 50000
KALS 101652Z AUTO 01004KT 10SM CLR M02/M17 A3057 RMK AO2 SLP409 T10171172
KALS 101552Z AUTO 23004KT 10SM CLR M08/M17 A3057 RMK AO2 SLP429 T10831172
KALS 101452Z AUTO 00000KT 10SM CLR M13/M18 A3056 RMK AO2 SLP430 T11331178 51007
KALS 101352Z AUTO 00000KT 10SM CLR M18/M21 A3056 RMK AO2 SLP430 T11781211
KALS 101252Z AUTO 00000KT 10SM CLR M17/M22 A3055 RMK AO2 SLP420 T11721217
KALS 101152Z AUTO 00000KT 10SM CLR M16/M20 A3054 RMK AO2 SLP389 T11611200 11122 21172 51003
KALS 101052Z AUTO 28006KT 10SM CLR M16/M20 A3054 RMK AO2 SLP378 T11611200
KALS 100952Z AUTO 00000KT 10SM CLR M15/M18 A3053 RMK AO2 SLP370 T11501178
KALS 100852Z AUTO 21004KT 10SM CLR M13/M18 A3053 RMK AO2 SLP363 T11331183 53001
KALS 100752Z AUTO 18004KT 10SM CLR M16/M19 A3053 RMK AO2 SLP374 T11561194
KALS 100652Z AUTO 21003KT 10SM CLR M14/M21 A3052 RMK AO2 SLP372 T11391211 400831167
KALS 100552Z AUTO 25005KT 10SM CLR M13/M21 A3052 RMK AO2 SLP376 T11281206 10033 21133 51012
KALS 100452Z AUTO 22006KT 10SM CLR M13/M21 A3051 RMK AO2 SLP378 T11281206
KALS 100352Z AUTO 10003KT 10SM CLR M12/M21 A3049 RMK AO2 SLP391 T11221206
KALS 100252Z AUTO 29005KT 10SM CLR M08/M19 A3048 RMK AO2 SLP394 T10831194 51013
KALS 100152Z AUTO 29004KT 10SM CLR M04/M19 A3047 RMK AO2 SLP391 T10441194
KALS 100052Z AUTO 21003KT 10SM CLR M03/M20 A3045 RMK AO2 SLP375 T10281200
KALS 092352Z AUTO 18004KT 10SM CLR 03/M20 A3043 RMK AO2 SLP346 T00331200 10083 20028 55001
KALS 092252Z AUTO 19003KT 10SM CLR 07/M20 A3043 RMK AO2 SLP325 T00721200
KALS 092152Z AUTO 00000KT 10SM CLR 08/M19 A3042 RMK AO2 SLP320 T00781194